createdAt,value
2019-04-29T00:02:08.524Z,71.30
2019-04-29T00:04:37.121Z,72.40
2019-04-29T00:07:06.003Z,72.20
2019-04-29T00:09:34.523Z,73.20
2019-04-29T00:12:03.251Z,73.60
2019-04-29T00:14:33.438Z,73.70
2019-04-29T00:17:03.675Z,72.70
2019-04-29T00:19:42.774Z,72.20
2019-04-29T00:22:11.299Z,73.50
2019-04-29T00:24:39.879Z,73.30
2019-04-29T00:27:08.402Z,88.40
2019-04-29T00:29:36.865Z,93.30
2019-04-29T00:32:05.715Z,83.10
2019-04-29T00:34:34.311Z,93.60
2019-04-29T00:37:07.223Z,97.60
2019-04-29T00:39:49.670Z,98.90
2019-04-29T00:42:25.369Z,99.90
2019-04-29T00:44:53.807Z,99.90
2019-04-29T00:47:22.336Z,99.90
2019-04-29T00:49:50.858Z,99.90
2019-04-29T00:52:19.315Z,99.90
2019-04-29T00:54:49.547Z,99.90
2019-04-29T00:57:18.079Z,99.90
2019-04-29T00:59:46.522Z,99.90
2019-04-29T01:02:14.980Z,99.90
2019-04-29T01:04:43.430Z,99.90
2019-04-29T01:07:12.016Z,99.90
2019-04-29T01:09:40.839Z,99.90
2019-04-29T01:12:09.352Z,99.90
2019-04-29T01:14:37.810Z,99.90
2019-04-29T01:17:06.249Z,99.90
2019-04-29T01:19:35.086Z,99.90
2019-04-29T01:22:03.669Z,99.90
2019-04-29T01:24:32.175Z,99.90
2019-04-29T01:27:02.268Z,99.90
2019-04-29T01:29:34.415Z,99.90
2019-04-29T01:32:03.025Z,99.90
2019-04-29T01:34:51.571Z,99.90
2019-04-29T01:37:20.031Z,99.90
2019-04-29T01:40:02.958Z,99.90
2019-04-29T01:42:33.131Z,99.90
2019-04-29T01:45:01.594Z,99.90
2019-04-29T01:47:30.055Z,99.90
2019-04-29T01:49:58.497Z,99.90
2019-04-29T01:52:27.015Z,99.90
2019-04-29T01:54:55.468Z,99.90
2019-04-29T01:57:23.910Z,99.90
2019-04-29T01:59:52.375Z,99.90
2019-04-29T02:02:20.841Z,99.90
2019-04-29T02:04:49.361Z,99.90
2019-04-29T02:07:17.818Z,99.90
2019-04-29T02:09:47.902Z,99.90
2019-04-29T02:12:16.358Z,99.90
2019-04-29T02:14:44.804Z,99.90
2019-04-29T02:17:13.332Z,99.90
2019-04-29T02:19:41.788Z,99.90
2019-04-29T02:22:17.964Z,99.90
2019-04-29T02:24:54.027Z,99.90
2019-04-29T02:27:22.480Z,99.90
2019-04-29T02:29:50.944Z,99.90
2019-04-29T02:32:19.387Z,99.90
2019-04-29T02:34:47.848Z,99.90
2019-04-29T02:37:17.951Z,99.90
2019-04-29T02:39:48.127Z,99.90
2019-04-29T02:42:34.947Z,99.90
2019-04-29T02:45:06.488Z,99.90
2019-04-29T02:47:35.010Z,99.90
2019-04-29T02:50:04.723Z,99.90
2019-04-29T02:52:33.173Z,99.90
2019-04-29T02:55:03.272Z,99.90
2019-04-29T02:57:33.527Z,99.90
2019-04-29T03:00:06.792Z,99.90
2019-04-29T03:02:36.967Z,99.90
2019-04-29T03:05:10.136Z,99.90
2019-04-29T03:07:38.791Z,99.90
2019-04-29T03:10:07.644Z,99.90
2019-04-29T03:12:36.270Z,99.90
2019-04-29T03:15:06.436Z,99.90
2019-04-29T03:17:35.129Z,99.90
2019-04-29T03:20:12.461Z,99.90
2019-04-29T03:22:42.540Z,99.90
2019-04-29T03:25:11.069Z,99.90
2019-04-29T03:27:39.507Z,99.90
2019-04-29T03:30:09.209Z,99.90
2019-04-29T03:32:37.741Z,99.90
2019-04-29T03:35:07.035Z,99.90
2019-04-29T03:37:35.551Z,99.90
2019-04-29T03:40:06.120Z,99.90
2019-04-29T03:42:34.591Z,99.90
2019-04-29T03:45:03.462Z,99.90
2019-04-29T03:47:34.916Z,99.90
2019-04-29T03:50:03.621Z,99.90
2019-04-29T03:52:32.218Z,99.90
2019-04-29T03:55:00.679Z,99.90
2019-04-29T03:57:30.859Z,99.90
2019-04-29T03:59:59.368Z,99.90
2019-04-29T04:02:44.637Z,99.90
2019-04-29T04:05:14.914Z,99.90
2019-04-29T04:08:01.194Z,99.90
2019-04-29T04:10:29.799Z,99.90
2019-04-29T04:12:58.386Z,99.90
2019-04-29T04:15:26.854Z,99.90
2019-04-29T04:17:57.027Z,99.90
2019-04-29T04:20:25.611Z,99.90
2019-04-29T04:22:54.105Z,99.90
2019-04-29T04:25:22.679Z,99.90
2019-04-29T04:27:51.124Z,99.90
2019-04-29T04:30:20.046Z,99.90
2019-04-29T04:32:48.550Z,99.90
2019-04-29T04:35:17.220Z,99.90
2019-04-29T04:37:45.688Z,99.90
2019-04-29T04:40:16.131Z,99.90
2019-04-29T04:42:44.645Z,99.90
2019-04-29T04:45:14.474Z,99.90
2019-04-29T04:47:42.931Z,99.90
2019-04-29T04:50:11.755Z,99.90
2019-04-29T04:52:40.196Z,99.90
2019-04-29T04:55:09.153Z,99.90
2019-04-29T04:57:37.686Z,99.90
2019-04-29T05:00:19.976Z,99.90
2019-04-29T05:02:46.981Z,99.90
2019-04-29T05:05:15.492Z,99.90
2019-04-29T05:07:44.103Z,99.90
2019-04-29T05:10:12.718Z,99.90
2019-04-29T05:12:41.184Z,99.90
2019-04-29T05:15:10.040Z,99.90
2019-04-29T05:17:38.512Z,99.90
2019-04-29T05:20:07.505Z,99.90
2019-04-29T05:22:36.019Z,99.90
2019-04-29T05:25:06.298Z,99.90
2019-04-29T05:27:34.814Z,99.90
2019-04-29T05:30:05.395Z,99.90
2019-04-29T05:32:33.835Z,99.90
2019-04-29T05:35:03.999Z,99.90
2019-04-29T05:37:34.099Z,99.90
2019-04-29T05:40:02.752Z,99.90
2019-04-29T05:42:31.281Z,99.20
2019-04-29T05:45:04.162Z,99.10
2019-04-29T05:47:39.990Z,96.10
2019-04-29T05:50:26.688Z,96.80
2019-04-29T05:52:59.536Z,93.00
2019-04-29T05:55:28.331Z,93.60
2019-04-29T05:58:03.062Z,92.10
2019-04-29T06:00:28.610Z,92.00
2019-04-29T06:02:57.103Z,90.70
2019-04-29T06:05:25.560Z,89.90
2019-04-29T06:07:56.094Z,90.20
2019-04-29T06:10:24.750Z,91.50
2019-04-29T06:12:53.395Z,87.00
2019-04-29T06:15:21.871Z,85.60
2019-04-29T06:17:50.339Z,85.70
2019-04-29T06:20:22.654Z,83.30
2019-04-29T06:22:48.967Z,85.30
2019-04-29T06:25:17.422Z,84.50
2019-04-29T06:27:45.951Z,79.10
2019-04-29T06:30:14.562Z,80.30
2019-04-29T06:32:43.096Z,80.20
2019-04-29T06:35:14.227Z,79.80
2019-04-29T06:37:41.874Z,79.00
2019-04-29T06:40:10.747Z,79.90
2019-04-29T06:42:39.196Z,77.70
2019-04-29T06:45:08.209Z,78.00
2019-04-29T06:47:36.702Z,74.60
2019-04-29T06:50:09.344Z,75.30
2019-04-29T06:52:37.802Z,76.10
2019-04-29T06:55:06.588Z,75.90
2019-04-29T06:57:35.047Z,75.70
2019-04-29T07:00:06.967Z,72.70
2019-04-29T07:02:35.435Z,73.90
2019-04-29T07:05:07.440Z,75.10
2019-04-29T07:07:35.900Z,72.40
2019-04-29T07:10:05.740Z,73.50
2019-04-29T07:12:34.263Z,74.70
2019-04-29T07:15:02.851Z,74.80
2019-04-29T07:17:31.335Z,72.70
2019-04-29T07:20:01.957Z,72.50
2019-04-29T07:22:31.209Z,73.00
2019-04-29T07:24:59.892Z,74.40
2019-04-29T07:27:28.355Z,71.60
2019-04-29T07:29:56.798Z,73.20
2019-04-29T07:32:25.271Z,74.30
2019-04-29T07:34:53.819Z,73.30
2019-04-29T07:37:22.286Z,71.60
2019-04-29T07:39:50.805Z,72.50
2019-04-29T07:42:19.264Z,72.40
2019-04-29T07:44:52.805Z,73.60
2019-04-29T07:47:19.540Z,71.20
2019-04-29T07:49:51.490Z,73.50
2019-04-29T07:52:18.192Z,72.60
2019-04-29T07:54:48.253Z,70.90
2019-04-29T07:57:18.063Z,72.70
2019-04-29T07:59:46.712Z,73.50
2019-04-29T08:02:15.178Z,71.20
2019-04-29T08:04:43.627Z,72.10
2019-04-29T08:07:12.156Z,73.70
2019-04-29T08:09:44.271Z,71.10
2019-04-29T08:12:12.675Z,71.60
2019-04-29T08:14:43.064Z,74.50
2019-04-29T08:17:11.523Z,73.50
2019-04-29T08:19:39.971Z,73.50
2019-04-29T08:22:08.433Z,73.70
2019-04-29T08:24:37.530Z,74.10
2019-04-29T08:27:06.225Z,72.40
2019-04-29T08:29:35.863Z,71.90
2019-04-29T08:32:05.041Z,72.40
2019-04-29T08:34:33.551Z,72.00
2019-04-29T08:37:02.061Z,72.20
2019-04-29T08:39:31.216Z,71.80
2019-04-29T08:42:03.698Z,73.00
2019-04-29T08:44:49.958Z,72.60
2019-04-29T08:47:23.076Z,74.30
2019-04-29T08:49:50.277Z,73.60
2019-04-29T08:52:18.727Z,72.80
2019-04-29T08:54:50.626Z,71.70
2019-04-29T08:57:17.432Z,71.30
2019-04-29T08:59:45.894Z,70.80
2019-04-29T09:02:14.423Z,71.50
2019-04-29T09:04:53.360Z,73.10
2019-04-29T09:07:17.391Z,72.80
2019-04-29T09:09:43.368Z,72.70
2019-04-29T09:12:11.835Z,74.00
2019-04-29T09:14:40.299Z,72.10
2019-04-29T09:17:19.740Z,71.80
2019-04-29T09:19:39.527Z,71.20
2019-04-29T09:22:09.782Z,72.00
2019-04-29T09:24:43.691Z,74.40
2019-04-29T09:27:11.774Z,72.60
2019-04-29T09:29:40.224Z,74.60
2019-04-29T09:32:08.902Z,74.50
2019-04-29T09:34:37.434Z,73.70
2019-04-29T09:37:06.106Z,76.40
2019-04-29T09:39:42.908Z,75.60
2019-04-29T09:42:26.019Z,75.80
2019-04-29T09:44:58.978Z,77.30
2019-04-29T09:47:27.806Z,76.70
2019-04-29T09:49:56.267Z,76.70
2019-04-29T09:52:24.711Z,74.80
2019-04-29T09:54:53.170Z,75.90
2019-04-29T09:57:21.632Z,74.20
2019-04-29T10:00:05.259Z,74.40
2019-04-29T10:02:41.423Z,73.30
2019-04-29T10:05:14.841Z,74.50
2019-04-29T10:07:43.524Z,75.10
2019-04-29T10:10:12.757Z,76.20
2019-04-29T10:12:41.271Z,74.10
2019-04-29T10:15:11.603Z,74.70
2019-04-29T10:17:50.969Z,75.20
2019-04-29T10:20:22.538Z,73.20
2019-04-29T10:22:53.861Z,72.20
2019-04-29T10:25:21.271Z,75.70
2019-04-29T10:27:49.809Z,70.10
2019-04-29T10:30:20.523Z,70.80
2019-04-29T10:32:48.987Z,73.10
2019-04-29T10:35:17.515Z,71.90
2019-04-29T10:37:46.047Z,71.10
2019-04-29T10:40:24.739Z,72.60
2019-04-29T10:42:59.446Z,71.60
2019-04-29T10:45:35.300Z,70.10
2019-04-29T10:48:25.273Z,70.60
2019-04-29T10:50:55.755Z,70.00
2019-04-29T10:53:24.240Z,69.80
2019-04-29T10:55:52.900Z,71.10
2019-04-29T10:58:21.920Z,69.60
2019-04-29T11:01:14.159Z,70.60
2019-04-29T11:03:43.239Z,69.00
2019-04-29T11:06:11.978Z,70.10
2019-04-29T11:08:47.636Z,70.30
2019-04-29T11:11:23.365Z,70.00
2019-04-29T11:13:50.315Z,69.70
2019-04-29T11:16:17.067Z,69.90
2019-04-29T11:18:45.601Z,69.20
2019-04-29T11:21:14.190Z,69.00
2019-04-29T11:23:50.662Z,68.00
2019-04-29T11:26:35.017Z,68.50
2019-04-29T11:29:07.398Z,66.20
2019-04-29T11:31:36.190Z,67.90
2019-04-29T11:34:18.972Z,72.20
2019-04-29T11:36:47.691Z,70.80
2019-04-29T11:39:16.474Z,68.80
2019-04-29T11:41:45.072Z,68.60
2019-04-29T11:44:13.518Z,69.40
2019-04-29T11:46:44.708Z,67.80
2019-04-29T11:49:13.764Z,68.30
2019-04-29T11:52:07.662Z,68.30
2019-04-29T11:54:18.050Z,66.90
2019-04-29T11:56:46.807Z,65.40
2019-04-29T11:59:22.562Z,66.80
2019-04-29T12:01:59.770Z,63.50
2019-04-29T12:04:33.379Z,63.90
2019-04-29T12:07:00.243Z,63.50
2019-04-29T12:09:30.433Z,63.60
2019-04-29T12:11:59.110Z,64.40
2019-04-29T12:14:38.085Z,64.40
2019-04-29T12:17:25.304Z,64.20
2019-04-29T12:19:55.474Z,64.00
2019-04-29T12:22:30.124Z,64.00
2019-04-29T12:24:54.316Z,63.30
2019-04-29T12:27:23.205Z,63.40
2019-04-29T12:29:54.246Z,65.30
2019-04-29T12:32:38.686Z,65.10
2019-04-29T12:35:21.508Z,67.10
2019-04-29T12:38:05.933Z,66.20
2019-04-29T12:40:36.713Z,66.50
2019-04-29T12:43:11.377Z,63.40
2019-04-29T12:45:41.960Z,64.00
2019-04-29T12:48:23.621Z,64.40
2019-04-29T12:50:40.814Z,65.30
2019-04-29T12:53:09.355Z,62.80
2019-04-29T12:55:44.970Z,64.20
2019-04-29T12:58:10.383Z,63.90
2019-04-29T13:00:47.482Z,63.80
2019-04-29T13:03:30.880Z,64.00
2019-04-29T13:06:05.416Z,64.50
2019-04-29T13:08:47.903Z,63.60
2019-04-29T13:11:19.084Z,64.40
2019-04-29T13:13:46.675Z,64.50
2019-04-29T13:16:22.037Z,63.70
2019-04-29T13:18:53.777Z,64.80
2019-04-29T13:21:22.624Z,64.40
2019-04-29T13:23:59.553Z,64.80
2019-04-29T13:26:28.423Z,63.00
2019-04-29T13:29:00.334Z,64.90
2019-04-29T13:31:37.023Z,64.30
2019-04-29T13:33:53.454Z,64.70
2019-04-29T13:36:25.884Z,64.70
2019-04-29T13:38:52.103Z,65.10
2019-04-29T13:41:25.778Z,64.40
2019-04-29T13:43:52.688Z,65.00
2019-04-29T13:46:25.764Z,63.90
2019-04-29T13:49:13.466Z,64.40
2019-04-29T13:51:39.603Z,64.00
2019-04-29T13:54:08.205Z,63.50
2019-04-29T13:56:54.545Z,65.90
2019-04-29T13:59:11.038Z,64.60
2019-04-29T14:01:58.439Z,64.50
2019-04-29T14:04:12.163Z,64.90
2019-04-29T14:06:55.834Z,65.10
2019-04-29T14:09:12.792Z,64.80
2019-04-29T14:11:41.250Z,64.40
2019-04-29T14:14:09.714Z,66.80
2019-04-29T14:16:38.247Z,65.50
2019-04-29T14:19:08.633Z,65.80
2019-04-29T14:21:36.952Z,66.80
2019-04-29T14:24:05.474Z,67.50
2019-04-29T14:26:37.043Z,67.10
2019-04-29T14:29:04.751Z,66.40
2019-04-29T14:31:33.273Z,65.30
2019-04-29T14:34:03.443Z,67.50
2019-04-29T14:36:32.036Z,66.30
2019-04-29T14:39:00.507Z,66.20
2019-04-29T14:41:30.596Z,66.20
2019-04-29T14:44:00.768Z,65.90
2019-04-29T14:46:39.852Z,66.70
2019-04-29T14:49:09.957Z,67.20
2019-04-29T14:51:38.473Z,69.00
2019-04-29T14:54:07.562Z,67.60
2019-04-29T14:56:36.224Z,68.90
2019-04-29T14:59:07.415Z,66.40
2019-04-29T15:01:53.259Z,67.30
2019-04-29T15:04:23.398Z,67.60
2019-04-29T15:06:51.950Z,66.90
2019-04-29T15:09:20.489Z,67.20
2019-04-29T15:12:02.994Z,70.00
2019-04-29T15:14:33.302Z,69.20
2019-04-29T15:17:03.596Z,68.00
2019-04-29T15:19:33.692Z,67.90
2019-04-29T15:22:03.805Z,66.90
2019-04-29T15:24:34.081Z,67.60
2019-04-29T15:27:02.723Z,66.10
2019-04-29T15:29:33.476Z,65.90
2019-04-29T15:32:01.419Z,68.10
2019-04-29T15:34:29.969Z,68.90
2019-04-29T15:36:58.554Z,67.20
2019-04-29T15:39:27.295Z,68.40
2019-04-29T15:41:56.000Z,69.40
2019-04-29T15:44:24.544Z,67.30
2019-04-29T15:46:53.007Z,66.20
2019-04-29T15:49:24.671Z,65.40
2019-04-29T15:51:51.638Z,66.80
2019-04-29T15:54:20.083Z,66.80
2019-04-29T15:56:48.738Z,66.60
2019-04-29T15:59:17.609Z,67.70
2019-04-29T16:01:46.235Z,66.90
2019-04-29T16:04:27.861Z,67.30
2019-04-29T16:07:08.775Z,69.40
2019-04-29T16:09:55.111Z,66.60
2019-04-29T16:12:34.251Z,66.80
2019-04-29T16:15:03.100Z,68.30
2019-04-29T16:17:37.399Z,68.70
2019-04-29T16:20:01.800Z,67.20
2019-04-29T16:22:30.281Z,67.30
2019-04-29T16:24:59.644Z,67.00
2019-04-29T16:27:28.962Z,68.50
2019-04-29T16:29:57.443Z,67.80
2019-04-29T16:32:33.463Z,67.20
2019-04-29T16:35:01.940Z,66.60
2019-04-29T16:37:31.874Z,66.40
2019-04-29T16:40:01.358Z,67.50
2019-04-29T16:42:31.650Z,68.50
2019-04-29T16:45:00.200Z,73.90
2019-04-29T16:47:29.567Z,69.80
2019-04-29T16:50:04.582Z,71.70
2019-04-29T16:52:28.299Z,71.10
2019-04-29T16:54:59.089Z,69.10
2019-04-29T16:57:27.094Z,69.60
2019-04-29T16:59:55.538Z,67.30
2019-04-29T17:02:24.610Z,68.70
2019-04-29T17:04:53.270Z,69.80
2019-04-29T17:07:21.885Z,71.90
2019-04-29T17:09:52.130Z,73.20
2019-04-29T17:12:20.812Z,68.70
2019-04-29T17:15:03.969Z,67.80
2019-04-29T17:17:28.503Z,67.40
2019-04-29T17:19:51.631Z,68.30
2019-04-29T17:22:25.938Z,69.70
2019-04-29T17:24:50.531Z,70.30
2019-04-29T17:27:42.331Z,68.10
2019-04-29T17:30:20.864Z,68.10
2019-04-29T17:33:04.171Z,69.80
2019-04-29T17:35:34.560Z,67.80
2019-04-29T17:38:03.079Z,67.60
2019-04-29T17:40:31.812Z,67.90
2019-04-29T17:43:11.199Z,67.70
2019-04-29T17:45:47.560Z,69.20
2019-04-29T17:48:33.099Z,72.50
2019-04-29T17:51:03.309Z,70.30
2019-04-29T17:53:36.524Z,70.50
2019-04-29T17:56:24.868Z,74.50
2019-04-29T17:59:00.518Z,74.50
2019-04-29T18:01:31.998Z,73.10
2019-04-29T18:04:02.289Z,74.40
2019-04-29T18:06:41.146Z,75.80
2019-04-29T18:09:26.875Z,76.50
2019-04-29T18:11:57.522Z,72.40
2019-04-29T18:14:36.589Z,72.10
2019-04-29T18:16:55.915Z,70.60
2019-04-29T18:19:30.841Z,72.30
2019-04-29T18:22:00.859Z,75.20
2019-04-29T18:24:37.098Z,76.60
2019-04-29T18:27:08.224Z,77.30
2019-04-29T18:29:41.553Z,79.60
2019-04-29T18:32:08.064Z,75.10
2019-04-29T18:34:37.430Z,72.60
2019-04-29T18:37:06.607Z,73.00
2019-04-29T18:39:35.850Z,71.90
2019-04-29T18:42:06.703Z,73.50
2019-04-29T18:44:35.769Z,72.30
2019-04-29T18:47:05.529Z,73.60
2019-04-29T18:49:34.237Z,72.10
2019-04-29T18:52:05.633Z,72.30
2019-04-29T18:54:32.935Z,71.50
2019-04-29T18:57:01.399Z,70.80
2019-04-29T18:59:33.337Z,71.00
2019-04-29T19:02:00.984Z,69.60
2019-04-29T19:04:53.389Z,70.40
2019-04-29T19:07:20.351Z,70.30
2019-04-29T19:10:14.336Z,70.80
2019-04-29T19:12:39.409Z,69.90
2019-04-29T19:15:11.464Z,70.00
2019-04-29T19:17:39.992Z,70.30
2019-04-29T19:20:13.078Z,71.20
2019-04-29T19:22:39.948Z,73.10
2019-04-29T19:25:11.755Z,71.80
2019-04-29T19:27:40.055Z,72.00
2019-04-29T19:30:09.356Z,72.30
2019-04-29T19:32:38.838Z,70.60
2019-04-29T19:35:07.855Z,72.10
2019-04-29T19:37:39.618Z,71.70
2019-04-29T19:40:08.321Z,71.30
2019-04-29T19:42:39.765Z,73.20
2019-04-29T19:45:13.111Z,73.20
2019-04-29T19:47:37.409Z,69.70
2019-04-29T19:50:10.137Z,70.10
2019-04-29T19:52:37.570Z,71.40
2019-04-29T19:55:07.155Z,71.20
2019-04-29T19:57:37.980Z,72.50
2019-04-29T20:00:08.562Z,72.70
2019-04-29T20:02:45.317Z,73.90
2019-04-29T20:05:10.217Z,73.70
2019-04-29T20:07:42.353Z,76.70
2019-04-29T20:10:10.704Z,79.00
2019-04-29T20:12:39.948Z,81.10
2019-04-29T20:15:09.651Z,81.30
2019-04-29T20:17:57.038Z,78.60
2019-04-29T20:20:38.695Z,76.20
2019-04-29T20:23:07.107Z,77.30
2019-04-29T20:25:38.255Z,79.10
2019-04-29T20:28:08.721Z,76.70
2019-04-29T20:30:36.361Z,72.90
2019-04-29T20:33:11.072Z,75.80
2019-04-29T20:35:35.774Z,77.20
2019-04-29T20:38:05.609Z,76.00
2019-04-29T20:40:36.301Z,75.10
2019-04-29T20:43:05.771Z,76.20
2019-04-29T20:45:35.481Z,78.30
2019-04-29T20:48:06.206Z,78.50
2019-04-29T20:50:35.427Z,82.10
2019-04-29T20:53:09.046Z,73.90
2019-04-29T20:55:38.624Z,73.90
2019-04-29T20:58:07.385Z,74.10
2019-04-29T21:00:37.870Z,71.50
2019-04-29T21:03:09.352Z,71.30
2019-04-29T21:05:47.463Z,71.60
2019-04-29T21:08:14.632Z,72.10
2019-04-29T21:10:38.035Z,71.70
2019-04-29T21:13:25.794Z,73.40
2019-04-29T21:15:59.602Z,73.30
2019-04-29T21:18:28.339Z,71.20
2019-04-29T21:20:59.683Z,70.50
2019-04-29T21:23:31.424Z,72.10
2019-04-29T21:26:00.541Z,71.40
2019-04-29T21:28:27.486Z,74.00
2019-04-29T21:30:56.083Z,74.10
2019-04-29T21:33:25.549Z,74.30
2019-04-29T21:35:57.859Z,73.90
2019-04-29T21:38:39.863Z,72.90
2019-04-29T21:41:09.963Z,72.90
2019-04-29T21:43:46.950Z,71.50
2019-04-29T21:46:13.215Z,73.50
2019-04-29T21:48:41.742Z,74.20
2019-04-29T21:51:11.218Z,72.60
2019-04-29T21:53:40.471Z,73.00
2019-04-29T21:56:09.547Z,72.60
2019-04-29T21:58:38.219Z,71.90
2019-04-29T22:01:07.384Z,72.30
2019-04-29T22:03:35.831Z,70.00
2019-04-29T22:06:04.358Z,71.60
2019-04-29T22:08:32.874Z,70.30
2019-04-29T22:11:04.794Z,71.30
2019-04-29T22:13:36.752Z,69.60
2019-04-29T22:16:01.894Z,69.10
2019-04-29T22:18:30.507Z,69.50
2019-04-29T22:20:59.087Z,69.40
2019-04-29T22:23:27.554Z,69.40
2019-04-29T22:25:56.795Z,69.50
2019-04-29T22:28:25.337Z,71.10
2019-04-29T22:30:54.931Z,70.40
2019-04-29T22:33:25.245Z,71.20
2019-04-29T22:35:55.460Z,73.00
2019-04-29T22:38:24.985Z,73.80
2019-04-29T22:40:55.219Z,72.70
2019-04-29T22:43:28.035Z,73.90
2019-04-29T22:45:56.571Z,71.80
2019-04-29T22:48:25.119Z,71.50
2019-04-29T22:50:55.491Z,71.30
2019-04-29T22:53:24.918Z,72.20
2019-04-29T22:55:53.564Z,71.60
2019-04-29T22:58:22.009Z,72.70
2019-04-29T23:00:50.535Z,71.60
2019-04-29T23:03:18.974Z,70.90
2019-04-29T23:05:47.575Z,71.20
2019-04-29T23:08:16.086Z,72.10
2019-04-29T23:10:45.616Z,71.20
2019-04-29T23:13:14.351Z,71.90
2019-04-29T23:15:42.870Z,71.60
2019-04-29T23:18:11.399Z,72.80
2019-04-29T23:20:47.347Z,71.30
2019-04-29T23:23:19.951Z,71.60
2019-04-29T23:25:50.271Z,73.70
2019-04-29T23:28:22.515Z,71.90
2019-04-29T23:30:52.126Z,71.30
2019-04-29T23:33:22.989Z,71.50
2019-04-29T23:35:49.315Z,70.90
2019-04-29T23:38:17.762Z,71.40
2019-04-29T23:40:49.609Z,72.00
2019-04-29T23:43:20.029Z,72.30
2019-04-29T23:45:46.845Z,71.70
2019-04-29T23:48:15.287Z,72.60
2019-04-29T23:50:45.385Z,72.70
2019-04-29T23:53:14.069Z,74.00
2019-04-29T23:55:42.524Z,72.80
2019-04-29T23:58:12.607Z,73.90
